LIBR/BDS METAR and TAF weather

Enter ICAO airport designator
Station Type Date Time Source
LIBR METAR 2019/02/20 17:20 UTC NOAA

LIBR 201720Z 33009KT 9999 FEW030 12/06 Q1023


Station Type Date Time Source
LIBR Decoded METAR 2019/02/20 17:20 UTC NOAA

Brindisi, Italy (LIBR) 40-39N 017-57E 10M
Feb 20, 2019 - 12:20 PM EST / 2019.02.20 1720 UTC
Wind: from the NNW (330 degrees) at 10 MPH (9 KT):0
Visibility: greater than 7 mile(s):0
Sky conditions: mostly clear
Temperature: 53 F (12 C)
Dew Point: 42 F (6 C)
Relative Humidity: 66%
Pressure (altimeter): 30.21 in. Hg (1023 hPa)
ob: LIBR 201720Z 33009KT 9999 FEW030 12/06 Q1023
cycle: 17

Station Type Date Time Source
LIBR TAF 2019/02/20 18:21 UTC NOAA

TAF LIBR 201700Z 2018/2118 34009KT CAVOK


Example: see airport list